createdAt,value
2022-12-08T00:18:38.278Z,2.32
2022-12-08T00:38:38.298Z,2.34
2022-12-08T00:58:38.332Z,2.36
2022-12-08T01:18:38.547Z,2.27
2022-12-08T01:38:38.446Z,2.21
2022-12-08T01:58:38.552Z,2.16
2022-12-08T02:18:38.542Z,2.16
2022-12-08T02:38:38.710Z,2.17
2022-12-08T02:58:38.659Z,2.14
2022-12-08T03:18:38.751Z,2.09
2022-12-08T03:38:38.723Z,2.07
2022-12-08T03:58:38.842Z,2.12
2022-12-08T04:18:38.944Z,2.13
2022-12-08T04:38:38.996Z,2.02
2022-12-08T04:58:39.061Z,1.91
2022-12-08T05:18:39.020Z,1.94
2022-12-08T05:38:39.090Z,1.85
2022-12-08T06:58:39.289Z,1.94
2022-12-08T07:18:39.386Z,2.04
2022-12-08T07:58:39.464Z,2.16
2022-12-08T08:18:39.486Z,2.33
2022-12-08T08:38:39.535Z,2.53
2022-12-08T08:58:39.680Z,2.77
2022-12-08T09:18:39.676Z,3.02
2022-12-08T09:38:39.742Z,3.15
2022-12-08T09:58:39.710Z,3.27
2022-12-08T10:18:39.796Z,3.13
2022-12-08T10:38:39.784Z,3.08
2022-12-08T10:58:39.790Z,3.05
2022-12-08T11:18:39.916Z,3.41
2022-12-08T11:38:39.986Z,3.42
2022-12-08T11:58:40.073Z,3.54
2022-12-08T12:18:40.139Z,3.55
2022-12-08T12:38:40.183Z,3.57
2022-12-08T12:58:40.255Z,3.79
2022-12-08T13:18:40.165Z,3.67
2022-12-08T13:38:40.405Z,3.55
2022-12-08T13:58:40.399Z,3.49
2022-12-08T14:18:40.384Z,3.39
2022-12-08T14:38:40.483Z,3.38
2022-12-08T14:58:40.498Z,3.1
2022-12-08T15:18:40.513Z,2.71
2022-12-08T15:38:40.474Z,2.54
2022-12-08T15:58:53.922Z,2.62
2022-12-08T16:18:40.689Z,2.65
2022-12-08T16:38:40.708Z,2.66
2022-12-08T16:58:40.809Z,2.68
2022-12-08T17:18:40.849Z,2.69
2022-12-08T17:38:40.935Z,2.71
2022-12-08T17:58:40.935Z,2.64
2022-12-08T18:18:41.003Z,2.61
2022-12-08T18:38:40.987Z,2.59
2022-12-08T19:18:41.089Z,2.56
2022-12-08T19:38:41.221Z,2.5
2022-12-08T19:58:41.047Z,2.44
2022-12-08T20:18:41.216Z,2.32
2022-12-08T20:38:41.324Z,2.2
2022-12-08T20:58:41.243Z,2.11
2022-12-08T21:18:41.582Z,1.9
2022-12-08T21:38:41.522Z,1.77
2022-12-08T21:58:41.519Z,1.67
2022-12-08T22:18:41.556Z,1.52
2022-12-08T22:38:41.541Z,1.27
2022-12-08T22:58:41.505Z,1.23
2022-12-08T23:18:41.683Z,1.23
2022-12-08T23:38:41.672Z,1.27
2022-12-08T23:58:41.766Z,1.23
